UAE131 OMDB-UUDD
Flight info
| Callsign | UAE131 |
|---|---|
| Flight time | N/A |
| Altitude | 35000 |
| Route | IVURO DCT NADSO DCT EGTAL DCT APELO DCT BIVIN G214 PG G325 REGET/N0503F360 N644 PAGMA DCT NURSA B362 LBA A299 POGON/K0919F360 Y927 KUGZA Q169 OGSES Y595 PIDWO/K0917F370 L985 AKALI/K0919F380 L985 LATNU M161 EDAKO DCT URL DCT ARISA L736 GEKPA T661 NATOP T752 GOLRI L736 OLOPI DCT UUDD/K0904F390 DCT UUDL/K0904F380 |
| Aircraft | A388/J-SADE2E3FGHIJ3J4J5M1RWXY/LB1D1 |
Departure
| Time | N/A |
|---|---|
| Airport | Dubai International Airport (OMDB) |
Arrival
| Time | 2026-05-07 13:41 |
|---|---|
| Airport | Domodedovo International Airport (UUDD) |
| Time | Latitude | Longitude | Altitude | Speed | Heading |
|---|---|---|---|---|---|
| 2026-05-07 13:22 | 54.31730 | 38.82649 | 16239 ft | 382 kts | 331° |
| 2026-05-07 13:23 | 54.34096 | 38.80657 | 15394 ft | 376 kts | 331° |
| 2026-05-07 13:23 | 54.36422 | 38.78677 | 14565 ft | 371 kts | 330° |
| 2026-05-07 13:23 | 54.38712 | 38.76716 | 13750 ft | 366 kts | 330° |
| 2026-05-07 13:23 | 54.40974 | 38.74776 | 12835 ft | 361 kts | 330° |
| 2026-05-07 13:24 | 54.43204 | 38.72861 | 12193 ft | 353 kts | 330° |
| 2026-05-07 13:24 | 54.45377 | 38.70997 | 11731 ft | 345 kts | 330° |
| 2026-05-07 13:24 | 54.47507 | 38.69168 | 11339 ft | 339 kts | 330° |
| 2026-05-07 13:24 | 54.49612 | 38.67355 | 10861 ft | 336 kts | 330° |
| 2026-05-07 13:25 | 54.51685 | 38.65565 | 10393 ft | 331 kts | 330° |
| 2026-05-07 13:25 | 54.53706 | 38.63821 | 10253 ft | 317 kts | 330° |
| 2026-05-07 13:25 | 54.55636 | 38.62156 | 10121 ft | 304 kts | 330° |
| 2026-05-07 13:25 | 54.57487 | 38.60558 | 10013 ft | 291 kts | 329° |
| 2026-05-07 13:26 | 54.59266 | 38.59019 | 9863 ft | 280 kts | 329° |
| 2026-05-07 13:26 | 54.60990 | 38.57523 | 9526 ft | 277 kts | 329° |
| 2026-05-07 13:26 | 54.62689 | 38.56045 | 9252 ft | 271 kts | 329° |
| 2026-05-07 13:26 | 54.64361 | 38.54590 | 8958 ft | 267 kts | 329° |
| 2026-05-07 13:27 | 54.66007 | 38.53156 | 8667 ft | 263 kts | 329° |
| 2026-05-07 13:27 | 54.67630 | 38.51743 | 8359 ft | 260 kts | 329° |
| 2026-05-07 13:27 | 54.69233 | 38.50345 | 8101 ft | 257 kts | 329° |
| 2026-05-07 13:27 | 54.70811 | 38.48967 | 7832 ft | 258 kts | 329° |
| 2026-05-07 13:28 | 54.72417 | 38.47566 | 7700 ft | 249 kts | 329° |
| 2026-05-07 13:28 | 54.73917 | 38.46261 | 7581 ft | 244 kts | 328° |
| 2026-05-07 13:28 | 54.75445 | 38.44932 | 7413 ft | 245 kts | 328° |
| 2026-05-07 13:28 | 54.76992 | 38.43589 | 6954 ft | 252 kts | 329° |
| 2026-05-07 13:29 | 54.78570 | 38.42219 | 6735 ft | 256 kts | 329° |
| 2026-05-07 13:29 | 54.80187 | 38.40814 | 6480 ft | 262 kts | 329° |
| 2026-05-07 13:29 | 54.81826 | 38.39392 | 6206 ft | 266 kts | 329° |
| 2026-05-07 13:29 | 54.83464 | 38.37973 | 6027 ft | 257 kts | 329° |
| 2026-05-07 13:30 | 54.85046 | 38.36602 | 5874 ft | 250 kts | 329° |
| 2026-05-07 13:30 | 54.86578 | 38.35262 | 5796 ft | 249 kts | 328° |
| 2026-05-07 13:30 | 54.88129 | 38.33890 | 5701 ft | 250 kts | 328° |
| 2026-05-07 13:30 | 54.89681 | 38.32518 | 5589 ft | 250 kts | 328° |
| 2026-05-07 13:31 | 54.91216 | 38.31161 | 5474 ft | 250 kts | 329° |
| 2026-05-07 13:31 | 54.92787 | 38.29775 | 5318 ft | 250 kts | 329° |
| 2026-05-07 13:31 | 54.94317 | 38.28427 | 5183 ft | 249 kts | 329° |
| 2026-05-07 13:31 | 54.95867 | 38.27052 | 5068 ft | 248 kts | 329° |
| 2026-05-07 13:32 | 54.97408 | 38.25685 | 4915 ft | 248 kts | 329° |
| 2026-05-07 13:32 | 54.98931 | 38.24336 | 4791 ft | 248 kts | 329° |
| 2026-05-07 13:32 | 55.00474 | 38.22965 | 4672 ft | 249 kts | 329° |
| 2026-05-07 13:32 | 55.02009 | 38.21605 | 4520 ft | 246 kts | 329° |
| 2026-05-07 13:33 | 55.03540 | 38.20248 | 4385 ft | 246 kts | 329° |
| 2026-05-07 13:33 | 55.05070 | 38.18889 | 4227 ft | 246 kts | 329° |
| 2026-05-07 13:33 | 55.06596 | 38.17533 | 4123 ft | 246 kts | 328° |
| 2026-05-07 13:33 | 55.08094 | 38.16199 | 4013 ft | 244 kts | 328° |
| 2026-05-07 13:34 | 55.09610 | 38.14849 | 3905 ft | 242 kts | 328° |
| 2026-05-07 13:34 | 55.12618 | 38.12391 | 3719 ft | 236 kts | 339° |
| 2026-05-07 13:34 | 55.14229 | 38.11831 | 3623 ft | 237 kts | 346° |
| 2026-05-07 13:35 | 55.15865 | 38.11344 | 3529 ft | 239 kts | 346° |
| 2026-05-07 13:35 | 55.17479 | 38.10832 | 3443 ft | 238 kts | 345° |
| 2026-05-07 13:35 | 55.19104 | 38.10309 | 3339 ft | 236 kts | 345° |
| 2026-05-07 13:35 | 55.20719 | 38.09791 | 3260 ft | 234 kts | 345° |
| 2026-05-07 13:36 | 55.22295 | 38.09296 | 3143 ft | 225 kts | 345° |
| 2026-05-07 13:36 | 55.23762 | 38.08628 | 3040 ft | 211 kts | 333° |
| 2026-05-07 13:36 | 55.25029 | 38.07532 | 3003 ft | 194 kts | 324° |
| 2026-05-07 13:36 | 55.26141 | 38.06318 | 2999 ft | 187 kts | 321° |
| 2026-05-07 13:37 | 55.27201 | 38.05067 | 2995 ft | 182 kts | 321° |
| 2026-05-07 13:37 | 55.28253 | 38.03812 | 3003 ft | 182 kts | 320° |
| 2026-05-07 13:37 | 55.29308 | 38.02546 | 2922 ft | 184 kts | 321° |
| 2026-05-07 13:37 | 55.30350 | 38.01310 | 2688 ft | 180 kts | 320° |
| 2026-05-07 13:38 | 55.31332 | 38.00138 | 2444 ft | 163 kts | 320° |
| 2026-05-07 13:38 | 55.32258 | 37.99023 | 2234 ft | 160 kts | 320° |
| 2026-05-07 13:38 | 55.33160 | 37.97947 | 2027 ft | 151 kts | 320° |
| 2026-05-07 13:38 | 55.34000 | 37.96938 | 1834 ft | 143 kts | 319° |
| 2026-05-07 13:39 | 55.34812 | 37.95949 | 1663 ft | 141 kts | 319° |
| 2026-05-07 13:39 | 55.35622 | 37.94996 | 1453 ft | 138 kts | 319° |
| 2026-05-07 13:39 | 55.36412 | 37.94065 | 1300 ft | 137 kts | 318° |
| 2026-05-07 13:39 | 55.37212 | 37.93050 | 1110 ft | 146 kts | 318° |
| 2026-05-07 13:40 | 55.38029 | 37.92068 | 930 ft | 145 kts | 325° |
| 2026-05-07 13:40 | 55.38894 | 37.91085 | 736 ft | 145 kts | 323° |
| 2026-05-07 13:40 | 55.39708 | 37.90102 | 569 ft | 138 kts | 323° |
| 2026-05-07 13:40 | 55.40383 | 37.89291 | 572 ft | 97 kts | 326° |
| 2026-05-07 13:41 | 55.40841 | 37.88739 | 585 ft | 60 kts | 326° |
| 2026-05-07 13:41 | 55.41055 | 37.88486 | 585 ft | 30 kts | 326° |
| 2026-05-07 13:41 | 55.41233 | 37.88368 | 588 ft | 26 kts | 352° |
| 2026-05-07 13:41 | 55.41330 | 37.88349 | 589 ft | 7 kts | 353° |
| 2026-05-07 13:42 | 55.41363 | 37.88348 | 589 ft | 5 kts | 26° |
| 2026-05-07 13:42 | 55.41381 | 37.88389 | 587 ft | 9 kts | 79° |
| 2026-05-07 13:42 | 55.41345 | 37.88494 | 588 ft | 13 kts | 144° |
| 2026-05-07 13:42 | 55.41229 | 37.88640 | 587 ft | 18 kts | 146° |
| 2026-05-07 13:43 | 55.41158 | 37.88726 | 585 ft | 20 kts | 146° |
| 2026-05-07 13:43 | 55.41036 | 37.88871 | 586 ft | 22 kts | 146° |
| 2026-05-07 13:43 | 55.40901 | 37.89032 | 584 ft | 24 kts | 146° |
| 2026-05-07 13:43 | 55.40791 | 37.89198 | 580 ft | 19 kts | 116° |
| 2026-05-07 13:44 | 55.40806 | 37.89426 | 581 ft | 19 kts | 54° |
| 2026-05-07 13:44 | 55.40894 | 37.89620 | 580 ft | 22 kts | 56° |
| 2026-05-07 13:44 | 55.40987 | 37.89859 | 581 ft | 25 kts | 56° |
| 2026-05-07 13:44 | 55.41082 | 37.90107 | 576 ft | 16 kts | 56° |
| 2026-05-07 13:45 | 55.41148 | 37.90284 | 580 ft | 14 kts | 68° |
| 2026-05-07 13:45 | 55.41105 | 37.90397 | 578 ft | 14 kts | 146° |
| 2026-05-07 13:45 | 55.41085 | 37.90472 | 572 ft | 4 kts | 63° |
| 2026-05-07 13:45 | 55.41101 | 37.90512 | 579 ft | 4 kts | 52° |
| 2026-05-07 13:46 | 55.41124 | 37.90563 | 579 ft | 6 kts | 52° |
| 2026-05-07 13:46 | 55.41153 | 37.90629 | 577 ft | 8 kts | 52° |
| 2026-05-07 13:46 | 55.41189 | 37.90710 | 578 ft | 9 kts | 52° |
| 2026-05-07 13:46 | 55.41223 | 37.90789 | 579 ft | 7 kts | 52° |
| 2026-05-07 13:47 | 55.41257 | 37.90866 | 578 ft | 9 kts | 52° |
| 2026-05-07 13:47 | 55.41296 | 37.90919 | 579 ft | 4 kts | 357° |
| 2026-05-07 13:47 | 55.41307 | 37.90912 | 579 ft | 1 kts | 334° |
| 2026-05-07 13:47 | 55.41311 | 37.90909 | 579 ft | 0 kts | 334° |
| 2026-05-07 13:48 | 55.41314 | 37.90907 | 579 ft | 1 kts | 334° |
| 2026-05-07 13:48 | 55.41315 | 37.90905 | 578 ft | 0 kts | 334° |
| 2026-05-07 13:48 | 55.41327 | 37.90896 | 580 ft | 5 kts | 334° |
| 2026-05-07 13:48 | 55.41359 | 37.90863 | 578 ft | 5 kts | 325° |
| 2026-05-07 13:49 | 55.41382 | 37.90835 | 580 ft | 3 kts | 327° |
| 2026-05-07 13:49 | 55.41396 | 37.90822 | 580 ft | 4 kts | 343° |
| 2026-05-07 13:49 | 55.41428 | 37.90818 | 585 ft | 4 kts | 2° |
| 2026-05-07 13:49 | 55.41456 | 37.90821 | 584 ft | 3 kts | 4° |
| 2026-05-07 13:50 | 55.41461 | 37.90822 | 584 ft | 0 kts | 4° |